createdAt,value
2022-08-07T00:00:20.586Z,2.40
2022-08-07T00:02:50.690Z,2.37
2022-08-07T00:05:23.876Z,2.87
2022-08-07T00:07:59.610Z,3.12
2022-08-07T00:10:32.139Z,3.00
2022-08-07T00:13:23.580Z,2.83
2022-08-07T00:15:52.572Z,2.92
2022-08-07T00:18:25.314Z,2.72
2022-08-07T00:21:01.429Z,2.90
2022-08-07T00:23:34.268Z,3.05
2022-08-07T00:26:18.777Z,3.05
2022-08-07T00:29:18.513Z,2.75
2022-08-07T00:31:53.677Z,2.75
2022-08-07T00:34:30.481Z,2.90
2022-08-07T00:37:05.003Z,2.67
2022-08-07T00:39:44.896Z,2.50
2022-08-07T00:42:12.834Z,2.90
2022-08-07T00:44:44.097Z,3.22
2022-08-07T00:47:16.096Z,3.03
2022-08-07T00:50:21.216Z,3.15
2022-08-07T00:52:58.937Z,3.10
2022-08-07T00:56:02.383Z,3.30
2022-08-07T00:58:19.273Z,3.00
2022-08-07T01:00:54.307Z,2.97
2022-08-07T01:03:55.830Z,3.12
2022-08-07T01:06:18.958Z,3.33
2022-08-07T01:08:53.379Z,3.23
2022-08-07T01:12:23.335Z,3.27
2022-08-07T01:14:11.026Z,3.22
2022-08-07T01:16:42.935Z,3.53
2022-08-07T01:19:19.251Z,3.08
2022-08-07T01:21:53.307Z,3.80
2022-08-07T01:24:22.568Z,3.40
2022-08-07T01:26:51.937Z,3.60
2022-08-07T01:29:31.519Z,3.70
2022-08-07T01:32:12.334Z,3.53
2022-08-07T01:34:47.286Z,3.50
2022-08-07T01:37:20.845Z,3.47
2022-08-07T01:39:54.209Z,3.08
2022-08-07T01:42:57.540Z,3.33
2022-08-07T01:45:37.142Z,3.22
2022-08-07T01:48:17.869Z,3.28
2022-08-07T01:51:39.261Z,3.30
2022-08-07T01:54:11.803Z,3.55
2022-08-07T01:56:58.909Z,3.80
2022-08-07T01:59:55.494Z,3.62
2022-08-07T02:03:18.232Z,3.70
2022-08-07T02:05:43.263Z,3.60
2022-08-07T02:08:23.843Z,3.83
2022-08-07T02:10:57.945Z,3.53
2022-08-07T02:13:56.766Z,3.72
2022-08-07T02:16:33.327Z,3.50
2022-08-07T02:20:05.551Z,3.62
2022-08-07T02:22:00.861Z,3.15
2022-08-07T02:24:30.586Z,4.10
2022-08-07T02:27:02.654Z,3.62
2022-08-07T02:29:32.208Z,3.70
2022-08-07T02:32:04.317Z,3.92
2022-08-07T02:34:32.659Z,3.05
2022-08-07T02:37:08.894Z,4.00
2022-08-07T02:40:02.247Z,4.30
2022-08-07T02:42:32.709Z,3.75
2022-08-07T02:45:07.292Z,4.03
2022-08-07T02:47:59.177Z,3.78
2022-08-07T02:50:34.219Z,3.05
2022-08-07T02:53:07.679Z,3.12
2022-08-07T02:56:03.662Z,4.07
2022-08-07T02:58:35.491Z,3.90
2022-08-07T03:01:19.134Z,4.32
2022-08-07T03:04:03.525Z,4.37
2022-08-07T03:06:37.134Z,3.67
2022-08-07T03:09:43.527Z,3.90
2022-08-07T03:12:08.078Z,3.70
2022-08-07T03:14:51.987Z,3.75
2022-08-07T03:17:25.377Z,3.95
2022-08-07T03:19:54.689Z,3.90
2022-08-07T03:22:29.527Z,3.95
2022-08-07T03:25:00.262Z,4.05
2022-08-07T03:28:09.382Z,4.10
2022-08-07T03:30:24.317Z,4.10
2022-08-07T03:32:58.256Z,3.15
2022-08-07T03:35:38.154Z,4.22
2022-08-07T03:38:21.438Z,4.00
2022-08-07T03:41:02.338Z,3.87
2022-08-07T03:43:36.041Z,3.65
2022-08-07T03:46:10.387Z,4.50
2022-08-07T03:49:03.020Z,3.92
2022-08-07T03:51:47.168Z,3.90
2022-08-07T03:54:35.507Z,3.72
2022-08-07T03:57:07.883Z,3.95
2022-08-07T03:59:36.562Z,3.87
2022-08-07T04:02:18.353Z,3.33
2022-08-07T04:07:19.029Z,4.15
2022-08-07T04:09:53.638Z,3.67
2022-08-07T04:12:27.030Z,4.10
2022-08-07T04:14:57.958Z,3.62
2022-08-07T04:18:11.234Z,3.87
2022-08-07T04:20:16.749Z,3.42
2022-08-07T04:23:01.894Z,3.60
2022-08-07T04:25:39.409Z,3.62
2022-08-07T04:28:10.423Z,3.50
2022-08-07T04:30:55.491Z,3.92
2022-08-07T04:33:26.379Z,3.62
2022-08-07T04:35:59.544Z,3.33
2022-08-07T04:38:29.528Z,4.03
2022-08-07T04:40:57.493Z,3.85
2022-08-07T04:44:12.023Z,3.80
2022-08-07T04:46:34.626Z,4.12
2022-08-07T04:49:25.628Z,4.28
2022-08-07T04:52:03.595Z,3.47
2022-08-07T04:54:43.656Z,4.15
2022-08-07T04:58:16.753Z,4.30
2022-08-07T05:00:30.100Z,3.30
2022-08-07T05:03:17.010Z,3.83
2022-08-07T05:05:58.861Z,3.93
2022-08-07T05:09:01.230Z,3.80
2022-08-07T05:11:57.203Z,3.70
2022-08-07T05:14:53.824Z,3.50
2022-08-07T05:17:52.179Z,4.00
2022-08-07T05:20:25.636Z,3.80
2022-08-07T05:23:00.178Z,4.00
2022-08-07T05:26:10.182Z,3.67
2022-08-07T05:28:26.608Z,3.17
2022-08-07T05:30:58.672Z,3.50
2022-08-07T05:33:28.710Z,4.15
2022-08-07T05:36:00.590Z,3.80
2022-08-07T05:39:00.908Z,3.53
2022-08-07T05:41:21.697Z,3.70
2022-08-07T05:44:08.283Z,3.67
2022-08-07T05:46:41.163Z,3.55
2022-08-07T05:49:15.006Z,3.37
2022-08-07T05:51:51.005Z,3.10
2022-08-07T05:54:30.717Z,3.70
2022-08-07T05:57:04.350Z,3.60
2022-08-07T05:59:38.964Z,3.42
2022-08-07T06:02:28.865Z,3.42
2022-08-07T06:05:05.900Z,3.55
2022-08-07T06:08:09.275Z,3.25
2022-08-07T06:10:28.922Z,3.12
2022-08-07T06:13:02.073Z,3.15
2022-08-07T06:15:42.152Z,2.45
2022-08-07T06:18:14.012Z,3.05
2022-08-07T06:20:49.749Z,3.05
2022-08-07T06:24:37.008Z,3.35
2022-08-07T06:26:27.585Z,3.00
2022-08-07T06:29:01.119Z,3.35
2022-08-07T06:31:46.743Z,2.87
2022-08-07T06:34:19.456Z,3.00
2022-08-07T06:36:52.194Z,4.68
2022-08-07T06:40:18.023Z,3.30
2022-08-07T06:42:19.267Z,3.20
2022-08-07T06:44:54.321Z,3.30
2022-08-07T06:47:25.084Z,2.97
2022-08-07T06:49:58.973Z,3.37
2022-08-07T06:52:35.610Z,3.05
2022-08-07T06:55:34.298Z,3.40
2022-08-07T06:58:10.194Z,3.22
2022-08-07T07:00:42.471Z,3.20
2022-08-07T07:03:26.413Z,3.10
2022-08-07T07:06:10.984Z,3.45
2022-08-07T07:08:39.833Z,3.05
2022-08-07T07:12:08.894Z,3.15
2022-08-07T07:14:09.834Z,3.20
2022-08-07T07:16:49.819Z,3.25
2022-08-07T07:19:56.374Z,3.08
2022-08-07T07:22:36.138Z,3.35
2022-08-07T07:26:30.844Z,2.85
2022-08-07T07:28:29.830Z,3.00
2022-08-07T07:31:17.119Z,2.70
2022-08-07T07:33:56.933Z,2.58
2022-08-07T07:36:29.631Z,2.87
2022-08-07T07:39:04.601Z,2.30
2022-08-07T07:41:50.675Z,2.17
2022-08-07T07:44:25.780Z,2.45
2022-08-07T07:47:04.398Z,2.20
2022-08-07T07:50:33.277Z,2.40
2022-08-07T07:52:32.673Z,2.10
2022-08-07T07:55:01.217Z,2.12
2022-08-07T07:57:43.748Z,2.12
2022-08-07T08:00:29.723Z,2.10
2022-08-07T08:03:08.011Z,2.30
2022-08-07T08:05:50.807Z,2.00
2022-08-07T08:08:34.372Z,1.92
2022-08-07T08:11:13.535Z,2.10
2022-08-07T08:13:53.802Z,1.60
2022-08-07T08:16:29.875Z,1.52
2022-08-07T08:19:09.957Z,1.85
2022-08-07T08:22:10.622Z,1.42
2022-08-07T08:25:24.951Z,1.87
2022-08-07T08:27:57.154Z,1.75
2022-08-07T08:30:29.904Z,1.60
2022-08-07T08:33:03.259Z,1.92
2022-08-07T08:35:39.286Z,1.67
2022-08-07T08:38:21.474Z,1.75
2022-08-07T08:41:02.984Z,1.73
2022-08-07T08:43:42.443Z,1.98
2022-08-07T08:46:49.186Z,1.80
2022-08-07T08:52:32.355Z,1.70
2022-08-07T08:55:53.829Z,1.80
2022-08-07T08:58:32.024Z,1.90
2022-08-07T09:01:24.259Z,1.90
2022-08-07T09:04:33.134Z,1.65
2022-08-07T09:07:25.354Z,1.92
2022-08-07T09:10:03.161Z,1.92
2022-08-07T09:12:53.348Z,2.00
2022-08-07T09:16:24.389Z,2.00
2022-08-07T09:19:00.508Z,2.30
2022-08-07T09:22:10.294Z,1.85
2022-08-07T09:24:56.071Z,2.20
2022-08-07T09:27:54.930Z,2.12
2022-08-07T09:31:04.169Z,2.28
2022-08-07T09:34:15.931Z,3.37
2022-08-07T09:36:46.832Z,2.10
2022-08-07T09:39:55.594Z,2.33
2022-08-07T09:42:24.871Z,2.65
2022-08-07T09:47:26.194Z,2.37
2022-08-07T09:48:20.378Z,2.55
2022-08-07T09:51:26.089Z,2.33
2022-08-07T09:54:03.409Z,2.80
2022-08-07T09:56:50.507Z,3.15
2022-08-07T10:00:00.816Z,2.85
2022-08-07T10:02:57.197Z,3.00
2022-08-07T10:06:00.108Z,3.08
2022-08-07T10:08:52.607Z,3.03
2022-08-07T10:12:03.336Z,3.50
2022-08-07T10:15:24.131Z,3.60
2022-08-07T10:18:18.218Z,3.50
2022-08-07T10:21:19.785Z,3.67
2022-08-07T10:24:27.099Z,3.62
2022-08-07T10:27:25.574Z,3.53
2022-08-07T10:30:12.415Z,2.80
2022-08-07T10:33:04.785Z,2.72
2022-08-07T10:36:14.618Z,2.95
2022-08-07T10:38:53.228Z,3.05
2022-08-07T10:41:51.697Z,2.95
2022-08-07T10:44:54.583Z,3.00
2022-08-07T10:47:52.949Z,3.17
2022-08-07T10:50:25.657Z,2.67
2022-08-07T10:53:09.221Z,3.10
2022-08-07T10:55:53.530Z,3.60
2022-08-07T10:58:47.666Z,3.78
2022-08-07T11:01:52.038Z,2.97
2022-08-07T11:04:34.607Z,2.97
2022-08-07T11:07:58.319Z,3.20
2022-08-07T11:10:52.309Z,2.62
2022-08-07T11:14:46.135Z,2.90
2022-08-07T11:16:29.963Z,2.90
2022-08-07T11:19:06.917Z,3.10
2022-08-07T11:21:44.818Z,2.80
2022-08-07T11:24:28.912Z,3.10
2022-08-07T11:27:20.976Z,3.00
2022-08-07T11:30:19.045Z,2.50
2022-08-07T11:33:07.936Z,2.80
2022-08-07T11:35:59.707Z,3.45
2022-08-07T11:38:50.676Z,2.87
2022-08-07T11:42:00.011Z,2.78
2022-08-07T11:44:25.208Z,2.78
2022-08-07T11:46:59.120Z,2.83
2022-08-07T11:50:30.162Z,2.72
2022-08-07T11:53:05.181Z,2.75
2022-08-07T11:56:09.114Z,3.03
2022-08-07T11:58:38.257Z,2.95
2022-08-07T12:01:59.963Z,2.75
2022-08-07T12:04:46.348Z,2.85
2022-08-07T12:07:27.311Z,2.90
2022-08-07T12:10:05.907Z,2.78
2022-08-07T12:12:45.711Z,3.55
2022-08-07T12:15:35.619Z,3.50
2022-08-07T12:18:16.121Z,3.05
2022-08-07T12:22:35.896Z,3.08
2022-08-07T12:25:08.043Z,3.03
2022-08-07T12:28:08.811Z,2.85
2022-08-07T12:30:32.571Z,2.85
2022-08-07T12:33:18.711Z,2.78
2022-08-07T12:35:58.022Z,3.42
2022-08-07T12:38:29.618Z,2.97
2022-08-07T12:41:09.868Z,3.17
2022-08-07T12:44:02.194Z,3.03
2022-08-07T12:46:36.817Z,3.10
2022-08-07T12:49:39.431Z,3.10
2022-08-07T12:52:18.185Z,3.10
2022-08-07T12:55:05.152Z,3.10
2022-08-07T12:57:59.374Z,3.25
2022-08-07T13:00:31.226Z,2.78
2022-08-07T13:03:56.140Z,2.97
2022-08-07T13:07:00.036Z,2.92
2022-08-07T13:10:19.994Z,3.15
2022-08-07T13:13:48.097Z,3.37
2022-08-07T13:16:12.171Z,3.03
2022-08-07T13:18:51.422Z,2.90
2022-08-07T13:21:50.393Z,3.30
2022-08-07T13:24:30.436Z,3.00
2022-08-07T13:27:06.579Z,3.25
2022-08-07T13:29:42.460Z,2.80
2022-08-07T13:32:39.905Z,2.65
2022-08-07T13:35:21.464Z,3.20
2022-08-07T13:37:58.939Z,3.12
2022-08-07T13:40:35.061Z,2.67
2022-08-07T13:43:15.241Z,3.40
2022-08-07T13:46:11.859Z,3.08
2022-08-07T13:48:35.053Z,3.00
2022-08-07T13:51:27.675Z,3.05
2022-08-07T13:54:03.288Z,3.15
2022-08-07T13:56:41.249Z,3.22
2022-08-07T13:59:25.751Z,3.60
2022-08-07T14:02:12.926Z,2.97
2022-08-07T14:04:49.442Z,3.05
2022-08-07T14:07:23.634Z,2.60
2022-08-07T14:10:17.347Z,3.17
2022-08-07T14:12:54.880Z,3.35
2022-08-07T14:15:43.509Z,2.97
2022-08-07T14:18:28.337Z,2.83
2022-08-07T14:22:02.553Z,2.75
2022-08-07T14:24:10.800Z,3.20
2022-08-07T14:26:50.491Z,3.62
2022-08-07T14:30:05.897Z,3.00
2022-08-07T14:32:15.182Z,2.90
2022-08-07T14:34:46.411Z,2.90
2022-08-07T14:37:18.657Z,3.03
2022-08-07T14:40:18.044Z,2.80
2022-08-07T14:43:00.955Z,2.83
2022-08-07T14:48:27.640Z,3.35
2022-08-07T14:51:00.079Z,3.20
2022-08-07T14:54:05.839Z,3.17
2022-08-07T14:56:29.819Z,2.83
2022-08-07T14:59:13.661Z,2.65
2022-08-07T15:01:53.462Z,3.22
2022-08-07T15:04:26.293Z,3.00
2022-08-07T15:06:57.448Z,2.70
2022-08-07T15:09:47.125Z,3.15
2022-08-07T15:12:26.165Z,2.67
2022-08-07T15:15:09.255Z,3.10
2022-08-07T15:17:58.909Z,2.80
2022-08-07T15:20:54.932Z,2.87
2022-08-07T15:25:02.790Z,2.97
2022-08-07T15:26:22.504Z,2.92
2022-08-07T15:30:03.681Z,3.05
2022-08-07T15:32:01.696Z,2.65
2022-08-07T15:37:27.819Z,3.17
2022-08-07T15:39:59.002Z,2.90
2022-08-07T15:45:55.683Z,3.08
2022-08-07T15:48:30.558Z,3.03
2022-08-07T15:51:08.609Z,3.10
2022-08-07T15:53:52.719Z,2.67
2022-08-07T15:56:34.936Z,2.85
2022-08-07T15:59:16.270Z,3.17
2022-08-07T16:02:02.258Z,3.00
2022-08-07T16:04:32.412Z,2.80
2022-08-07T16:07:04.607Z,2.70
2022-08-07T16:09:41.881Z,2.78
2022-08-07T16:12:28.771Z,2.97
2022-08-07T16:15:06.930Z,2.55
2022-08-07T16:18:00.749Z,2.95
2022-08-07T16:22:01.606Z,3.03
2022-08-07T16:24:33.718Z,3.15
2022-08-07T16:27:18.223Z,2.78
2022-08-07T16:30:30.533Z,3.17
2022-08-07T16:32:59.762Z,3.20
2022-08-07T16:35:52.324Z,3.00
2022-08-07T16:39:01.048Z,3.42
2022-08-07T16:42:00.519Z,2.62
2022-08-07T16:45:19.298Z,2.47
2022-08-07T16:48:28.427Z,4.03
2022-08-07T16:51:54.076Z,2.90
2022-08-07T16:54:55.487Z,2.90
2022-08-07T16:58:02.034Z,3.25
2022-08-07T17:00:41.122Z,3.00
2022-08-07T17:03:17.132Z,2.42
2022-08-07T17:06:29.333Z,2.58
2022-08-07T17:09:14.017Z,2.85
2022-08-07T17:12:04.815Z,2.77
2022-08-07T17:14:36.511Z,2.97
2022-08-07T17:17:09.994Z,2.78
2022-08-07T17:20:02.332Z,2.90
2022-08-07T17:22:46.241Z,3.20
2022-08-07T17:25:20.094Z,2.97
2022-08-07T17:28:14.162Z,3.05
2022-08-07T17:30:59.118Z,3.20
2022-08-07T17:34:08.989Z,2.90
2022-08-07T17:36:26.150Z,2.92
2022-08-07T17:38:59.807Z,2.62
2022-08-07T17:42:04.732Z,2.70
2022-08-07T17:44:55.808Z,3.00
2022-08-07T17:47:42.447Z,2.58
2022-08-07T17:50:31.123Z,2.53
2022-08-07T17:53:09.100Z,2.60
2022-08-07T17:56:26.139Z,2.60
2022-08-07T17:58:56.882Z,3.10
2022-08-07T18:01:36.831Z,2.55
2022-08-07T18:04:34.517Z,2.97
2022-08-07T18:07:22.514Z,2.83
2022-08-07T18:10:31.937Z,2.45
2022-08-07T18:13:00.675Z,2.80
2022-08-07T18:15:32.878Z,2.65
2022-08-07T18:18:46.177Z,3.20
2022-08-07T18:21:41.365Z,2.90
2022-08-07T18:24:33.759Z,3.12
2022-08-07T18:27:40.262Z,2.60
2022-08-07T18:30:30.833Z,2.35
2022-08-07T18:33:16.638Z,2.40
2022-08-07T18:36:03.454Z,2.90
2022-08-07T18:38:59.651Z,2.78
2022-08-07T18:41:45.475Z,2.75
2022-08-07T18:45:43.006Z,2.30
2022-08-07T18:50:05.355Z,2.42
2022-08-07T18:52:34.997Z,2.35
2022-08-07T18:54:27.854Z,2.75
2022-08-07T18:57:58.725Z,2.35
2022-08-07T19:00:55.126Z,2.65
2022-08-07T19:03:38.845Z,2.58
2022-08-07T19:06:33.722Z,2.60
2022-08-07T19:09:57.717Z,2.80
2022-08-07T19:12:27.126Z,2.53
2022-08-07T19:16:05.929Z,2.15
2022-08-07T19:18:34.449Z,2.42
2022-08-07T19:21:14.546Z,2.87
2022-08-07T19:24:00.367Z,2.58
2022-08-07T19:27:09.509Z,2.67
2022-08-07T19:31:00.764Z,2.55
2022-08-07T19:32:39.466Z,2.10
2022-08-07T19:35:33.032Z,2.30
2022-08-07T19:38:16.664Z,2.22
2022-08-07T19:40:49.704Z,2.55
2022-08-07T19:43:49.000Z,2.03
2022-08-07T19:46:14.541Z,2.70
2022-08-07T19:48:53.648Z,2.25
2022-08-07T19:51:52.812Z,2.17
2022-08-07T19:54:33.484Z,2.22
2022-08-07T19:58:03.205Z,2.37
2022-08-07T20:00:08.806Z,2.37
2022-08-07T20:02:52.179Z,1.90
2022-08-07T20:05:30.413Z,1.90
2022-08-07T20:08:25.273Z,1.90
2022-08-07T20:11:03.716Z,2.05
2022-08-07T20:13:42.595Z,1.85
2022-08-07T20:16:15.850Z,2.00
2022-08-07T20:19:02.287Z,1.60
2022-08-07T20:21:42.160Z,1.70
2022-08-07T20:24:28.666Z,1.50
2022-08-07T20:27:03.079Z,1.52
2022-08-07T20:29:48.274Z,1.30
2022-08-07T20:32:25.446Z,1.95
2022-08-07T20:37:29.480Z,1.50
2022-08-07T20:40:03.913Z,1.40
2022-08-07T20:45:04.359Z,1.90
2022-08-07T20:47:56.349Z,1.60
2022-08-07T20:50:28.974Z,1.80
2022-08-07T20:52:58.816Z,1.62
2022-08-07T20:55:32.186Z,1.90
2022-08-07T20:58:12.048Z,1.60
2022-08-07T21:00:53.961Z,1.60
2022-08-07T21:03:23.038Z,1.87
2022-08-07T21:05:57.066Z,1.27
2022-08-07T21:08:38.068Z,1.62
2022-08-07T21:11:14.601Z,1.60
2022-08-07T21:14:16.881Z,1.48
2022-08-07T21:16:55.874Z,1.65
2022-08-07T21:19:32.378Z,1.77
2022-08-07T21:22:19.361Z,2.03
2022-08-07T21:25:12.343Z,1.80
2022-08-07T21:27:53.737Z,1.70
2022-08-07T21:30:30.142Z,1.80
2022-08-07T21:33:09.317Z,1.60
2022-08-07T21:36:05.202Z,1.25
2022-08-07T21:38:49.928Z,1.50
2022-08-07T21:41:37.804Z,1.30
2022-08-07T21:44:39.870Z,1.58
2022-08-07T21:47:16.259Z,1.45
2022-08-07T21:50:05.341Z,1.70
2022-08-07T21:52:54.580Z,1.95
2022-08-07T21:55:31.037Z,2.25
2022-08-07T21:58:06.785Z,1.75
2022-08-07T22:00:38.085Z,1.75
2022-08-07T22:03:30.807Z,1.12
2022-08-07T22:06:06.421Z,1.27
2022-08-07T22:08:39.716Z,1.73
2022-08-07T22:11:11.240Z,1.40
2022-08-07T22:13:50.215Z,1.40
2022-08-07T22:16:39.738Z,1.45
2022-08-07T22:19:23.598Z,1.80
2022-08-07T22:22:17.786Z,1.48
2022-08-07T22:24:54.655Z,1.50
2022-08-07T22:28:08.320Z,1.52
2022-08-07T22:30:52.948Z,1.40
2022-08-07T22:33:53.680Z,1.58
2022-08-07T22:36:59.656Z,1.50
2022-08-07T22:39:52.530Z,1.30
2022-08-07T22:42:25.580Z,1.75
2022-08-07T22:46:04.566Z,1.42
2022-08-07T22:49:00.460Z,1.50
2022-08-07T22:51:49.242Z,1.30
2022-08-07T22:54:48.965Z,1.60
2022-08-07T22:57:48.588Z,1.60
2022-08-07T23:00:28.184Z,1.50
2022-08-07T23:03:18.381Z,1.30
2022-08-07T23:06:37.629Z,1.50
2022-08-07T23:12:34.027Z,1.62
2022-08-07T23:16:04.547Z,1.35
2022-08-07T23:18:14.014Z,1.77
2022-08-07T23:21:10.560Z,2.00
2022-08-07T23:24:11.442Z,1.42
2022-08-07T23:27:33.910Z,1.20
2022-08-07T23:30:35.756Z,1.67
2022-08-07T23:34:21.777Z,1.50
2022-08-07T23:36:28.979Z,1.45
2022-08-07T23:39:14.452Z,2.15
2022-08-07T23:42:04.672Z,1.65
2022-08-07T23:44:51.463Z,1.80
2022-08-07T23:47:46.579Z,1.85
2022-08-07T23:50:41.869Z,1.60
2022-08-07T23:53:21.321Z,1.80
2022-08-07T23:56:12.118Z,1.50
2022-08-07T23:59:10.330Z,1.48
